Time;durP1;ratioP1;P1;durP2;ratioP2;P2;SDS_P1;SDS_P2;PMS_P1;PMS_P2;Temp;Humidity;BMP_temperature;BMP_pressure;BME280_temperature;BME280_humidity;BME280_pressure;Samples;Min_cycle;Max_cycle;Signal;HPM_P1;HPM_P2
2022/09/09 00:01:44;;;;;;;8.90;8.00;;;;;;;16.50;99.99;96337.27;107845;1270;25494;-79
2022/09/09 00:04:25;;;;;;;8.20;7.40;;;;;;;16.53;100.00;96339.80;107940;1270;25390;-79
2022/09/09 00:07:11;;;;;;;7.60;6.90;;;;;;;16.52;100.00;96344.59;107815;1270;22745;-78
2022/09/09 00:09:50;;;;;;;7.50;6.80;;;;;;;16.51;100.00;96337.90;107874;1270;27131;-79
2022/09/09 00:12:26;;;;;;;8.90;7.60;;;;;;;16.50;100.00;96340.02;107932;1270;25311;-79
2022/09/09 00:15:01;;;;;;;9.20;7.70;;;;;;;16.54;100.00;96337.12;107792;1270;23109;-79
2022/09/09 00:17:40;;;;;;;8.90;7.90;;;;;;;16.62;100.00;96342.69;107864;1270;22616;-79
2022/09/09 00:20:18;;;;;;;8.10;6.60;;;;;;;16.68;100.00;96340.19;107876;1270;34079;-79
2022/09/09 00:22:56;;;;;;;7.60;6.80;;;;;;;16.74;100.00;96334.20;107832;1270;22646;-78
2022/09/09 00:25:36;;;;;;;5.60;5.00;;;;;;;16.80;100.00;96337.77;107826;1270;22534;-79
2022/09/09 00:28:15;;;;;;;6.60;4.70;;;;;;;16.81;99.84;96339.40;107927;1270;25220;-79
2022/09/09 00:30:49;;;;;;;6.90;5.60;;;;;;;16.79;99.65;96347.89;107866;1270;22556;-79
2022/09/09 00:33:24;;;;;;;3.40;3.10;;;;;;;16.77;99.76;96347.11;107996;1270;25413;-79
2022/09/09 00:35:59;;;;;;;2.60;2.40;;;;;;;16.70;99.30;96346.45;107839;1270;24299;-79
2022/09/09 00:38:41;;;;;;;2.20;2.00;;;;;;;16.64;99.12;96346.83;107868;1270;25584;-79
2022/09/09 00:41:21;;;;;;;2.70;2.20;;;;;;;16.58;99.22;96345.31;107923;1270;22519;-79
2022/09/09 00:44:03;;;;;;;2.30;2.10;;;;;;;16.52;99.28;96345.59;108010;1270;22582;-79
2022/09/09 00:46:57;;;;;;;2.90;2.50;;;;;;;16.47;99.40;96352.90;107874;1270;22714;-79
2022/09/09 00:49:40;;;;;;;2.70;2.50;;;;;;;16.43;99.60;96352.65;107913;1271;25163;-78
2022/09/09 00:52:30;;;;;;;2.90;2.50;;;;;;;16.41;99.63;96353.17;107957;1270;22978;-79
2022/09/09 00:55:09;;;;;;;2.60;2.40;;;;;;;16.37;99.82;96353.57;107977;1271;22484;-79
2022/09/09 00:57:41;;;;;;;3.50;2.40;;;;;;;16.34;99.85;96352.39;107952;1270;22680;-79
2022/09/09 01:00:25;;;;;;;2.90;2.20;;;;;;;16.33;100.00;96351.16;107916;1270;25466;-79
2022/09/09 01:03:28;;;;;;;3.50;2.50;;;;;;;16.29;100.00;96353.98;107956;1270;22996;-79
2022/09/09 01:06:13;;;;;;;3.10;2.70;;;;;;;16.27;100.00;96359.42;107934;1270;22541;-79
2022/09/09 01:09:11;;;;;;;4.00;2.40;;;;;;;16.22;100.00;96359.61;107851;1270;26143;-79
2022/09/09 01:11:53;;;;;;;3.30;3.00;;;;;;;16.16;100.00;96365.48;107939;1271;24438;-79
2022/09/09 01:14:41;;;;;;;3.20;2.50;;;;;;;16.13;100.00;96367.63;107944;1271;22623;-79
2022/09/09 01:17:17;;;;;;;3.30;2.50;;;;;;;16.11;100.00;96372.83;107969;1270;25342;-79
2022/09/09 01:20:02;;;;;;;4.40;2.80;;;;;;;16.09;100.00;96372.90;107922;1269;26362;-78
2022/09/09 01:22:41;;;;;;;3.50;3.00;;;;;;;16.08;100.00;96375.23;107932;1270;22609;-79
2022/09/09 01:25:31;;;;;;;3.60;3.20;;;;;;;16.08;100.00;96374.98;107966;1271;23648;-79
2022/09/09 01:28:09;;;;;;;2.80;2.60;;;;;;;16.07;100.00;96373.95;107926;1269;24191;-79
2022/09/09 01:30:42;;;;;;;3.20;2.90;;;;;;;16.05;100.00;96375.33;107804;1270;39054;-79
2022/09/09 01:33:17;;;;;;;3.90;3.10;;;;;;;16.06;100.00;96375.05;107910;1270;22537;-79
2022/09/09 01:35:54;;;;;;;5.80;3.00;;;;;;;16.08;100.00;96381.33;107906;1270;22541;-79
2022/09/09 01:38:26;;;;;;;3.40;2.90;;;;;;;16.12;100.00;96383.27;107874;1270;31383;-78
2022/09/09 01:40:58;;;;;;;3.70;3.30;;;;;;;16.19;100.00;96384.60;107883;1270;25485;-79
2022/09/09 01:43:30;;;;;;;3.50;3.20;;;;;;;16.21;100.00;96391.05;107916;1270;25940;-79
2022/09/09 01:46:04;;;;;;;4.30;3.70;;;;;;;16.24;100.00;96391.48;107963;1270;22601;-79
2022/09/09 01:48:35;;;;;;;3.50;3.20;;;;;;;16.24;100.00;96388.64;107854;1270;29021;-79
2022/09/09 01:51:08;;;;;;;3.80;3.40;;;;;;;16.24;100.00;96392.86;107963;1270;22519;-79
2022/09/09 01:53:42;;;;;;;4.10;3.50;;;;;;;16.24;100.00;96394.46;107968;1271;22516;-79
2022/09/09 01:56:26;;;;;;;5.10;4.80;;;;;;;16.26;100.00;96399.74;107998;1271;25197;-79
2022/09/09 01:59:11;;;;;;;3.50;3.00;;;;;;;16.27;100.00;96400.14;107859;1270;29243;-79
2022/09/09 02:01:58;;;;;;;2.90;2.50;;;;;;;16.27;100.00;96403.14;107961;1270;22596;-79
2022/09/09 02:04:40;;;;;;;3.70;2.80;;;;;;;16.24;100.00;96406.45;107991;1270;25241;-79
2022/09/09 02:07:22;;;;;;;2.60;2.40;;;;;;;16.25;100.00;96404.13;107915;1270;22530;-79
2022/09/09 02:09:59;;;;;;;2.70;2.50;;;;;;;16.28;100.00;96404.67;107894;1270;25737;-79
2022/09/09 02:12:32;;;;;;;2.30;2.10;;;;;;;16.28;100.00;96410.75;108006;1271;23611;-79
2022/09/09 02:15:09;;;;;;;2.90;2.60;;;;;;;16.31;100.00;96409.10;107951;1270;25400;-79
2022/09/09 02:17:43;;;;;;;2.60;2.40;;;;;;;16.35;100.00;96411.44;107985;1271;22537;-79
2022/09/09 02:20:16;;;;;;;3.00;2.80;;;;;;;16.40;99.97;96413.83;107951;1271;25321;-79
2022/09/09 02:22:50;;;;;;;3.50;2.90;;;;;;;16.37;99.95;96416.83;107979;1271;22745;-79
2022/09/09 02:25:25;;;;;;;2.60;2.30;;;;;;;16.30;99.89;96419.90;107928;1271;22633;-80
2022/09/09 02:28:00;;;;;;;4.20;2.70;;;;;;;16.28;99.95;96419.59;107970;1271;23879;-79
2022/09/09 02:30:33;;;;;;;3.20;2.70;;;;;;;16.24;100.00;96424.34;107840;1270;32317;-79
2022/09/09 02:33:10;;;;;;;3.00;2.70;;;;;;;16.17;100.00;96424.88;108025;1271;22545;-79
2022/09/09 02:35:44;;;;;;;3.70;2.50;;;;;;;16.14;100.00;96423.91;107942;1271;22593;-79
2022/09/09 02:38:17;;;;;;;2.80;2.40;;;;;;;16.16;100.00;96424.15;107955;1270;22527;-79
2022/09/09 02:40:48;;;;;;;2.40;2.20;;;;;;;16.17;100.00;96426.91;107978;1270;22563;-79
2022/09/09 02:43:19;;;;;;;2.70;2.50;;;;;;;16.19;100.00;96428.55;107939;1271;22553;-79
2022/09/09 02:45:58;;;;;;;2.40;2.20;;;;;;;16.23;100.00;96432.98;107947;1271;22544;-79
2022/09/09 02:48:38;;;;;;;2.30;2.00;;;;;;;16.25;99.99;96436.22;107874;1271;30234;-79
2022/09/09 02:51:17;;;;;;;2.70;2.20;;;;;;;16.26;99.93;96443.68;107974;1271;22640;-79
2022/09/09 02:53:55;;;;;;;2.60;1.60;;;;;;;16.26;99.94;96447.36;107985;1271;22522;-79
2022/09/09 02:56:32;;;;;;;2.50;2.30;;;;;;;16.29;100.00;96450.59;107892;1270;22557;-80
2022/09/09 02:59:06;;;;;;;3.60;2.20;;;;;;;16.29;99.78;96447.53;107865;1271;25635;-79
2022/09/09 03:01:39;;;;;;;3.00;2.30;;;;;;;16.28;99.69;96455.66;107958;1270;25442;-79
2022/09/09 03:04:11;;;;;;;2.70;2.40;;;;;;;16.28;99.66;96452.54;107970;1271;22598;-79
2022/09/09 03:06:43;;;;;;;2.60;2.30;;;;;;;16.30;99.61;96456.46;107987;1271;25264;-79
2022/09/09 03:09:14;;;;;;;2.90;2.30;;;;;;;16.31;99.38;96454.73;107856;1270;27801;-79
2022/09/09 03:11:45;;;;;;;2.20;2.00;;;;;;;16.32;99.10;96459.30;107933;1270;22637;-79
2022/09/09 03:14:16;;;;;;;2.40;2.10;;;;;;;16.30;98.92;96451.77;107933;1271;22516;-79
2022/09/09 03:16:48;;;;;;;2.10;1.90;;;;;;;16.30;98.92;96453.61;107956;1270;22532;-79
2022/09/09 03:19:19;;;;;;;1.80;1.70;;;;;;;16.29;98.99;96458.92;107905;1271;32254;-79
2022/09/09 03:21:50;;;;;;;2.60;2.30;;;;;;;16.26;98.87;96460.73;107972;1271;22531;-79
2022/09/09 03:24:22;;;;;;;3.10;1.90;;;;;;;16.22;98.55;96460.87;107980;1271;22542;-79
2022/09/09 03:26:55;;;;;;;3.30;2.40;;;;;;;16.23;98.70;96459.90;107984;1271;24278;-79
2022/09/09 03:29:27;;;;;;;3.60;2.30;;;;;;;16.25;98.72;96459.61;107872;1270;28945;-79
2022/09/09 03:31:58;;;;;;;2.50;2.30;;;;;;;16.25;98.77;96458.48;107939;1270;22579;-79
2022/09/09 03:34:29;;;;;;;2.70;2.50;;;;;;;16.23;98.48;96460.84;107990;1270;24305;-79
2022/09/09 03:37:00;;;;;;;4.70;2.90;;;;;;;16.22;98.51;96461.38;107959;1271;22593;-79
2022/09/09 03:39:31;;;;;;;4.00;2.30;;;;;;;16.21;98.61;96463.90;107917;1271;23500;-79
2022/09/09 03:42:03;;;;;;;2.50;2.30;;;;;;;16.18;98.65;96464.96;107950;1270;24540;-79
2022/09/09 03:44:35;;;;;;;3.50;2.50;;;;;;;16.06;98.46;96465.98;107991;1271;25225;-79
2022/09/09 03:47:06;;;;;;;2.40;2.20;;;;;;;15.98;98.64;96468.10;107939;1271;22537;-79
2022/09/09 03:49:37;;;;;;;3.30;2.60;;;;;;;15.97;98.86;96467.73;107905;1271;32909;-79
2022/09/09 03:52:13;;;;;;;2.70;2.30;;;;;;;15.97;98.87;96470.27;108004;1271;22536;-79
2022/09/09 03:54:49;;;;;;;3.10;2.90;;;;;;;15.98;98.71;96473.20;107974;1271;22560;-79
2022/09/09 03:57:21;;;;;;;4.10;3.10;;;;;;;15.99;98.80;96477.69;107976;1271;22518;-79
2022/09/09 03:59:52;;;;;;;3.00;2.40;;;;;;;16.05;98.81;96478.98;107863;1271;34356;-79
2022/09/09 04:02:24;;;;;;;3.30;3.00;;;;;;;16.08;98.70;96482.92;107965;1271;22527;-79
2022/09/09 04:04:56;;;;;;;2.30;2.10;;;;;;;16.09;98.65;96477.19;107963;1271;22531;-79
2022/09/09 04:07:29;;;;;;;3.20;2.50;;;;;;;16.10;98.38;96478.45;107962;1271;22566;-79
2022/09/09 04:10:01;;;;;;;3.10;2.50;;;;;;;16.08;98.41;96481.41;107894;1271;28045;-79
2022/09/09 04:12:32;;;;;;;2.80;2.20;;;;;;;16.00;98.43;96482.53;107935;1272;25236;-79
2022/09/09 04:15:04;;;;;;;3.80;2.60;;;;;;;15.96;98.59;96489.46;107981;1271;23438;-79
2022/09/09 04:17:36;;;;;;;3.30;3.00;;;;;;;15.89;98.91;96491.76;107967;1270;25519;-79
2022/09/09 04:20:12;;;;;;;3.70;2.90;;;;;;;15.84;99.23;96490.24;107921;1271;27359;-79
2022/09/09 04:22:43;;;;;;;3.30;2.90;;;;;;;15.83;99.44;96492.61;107930;1271;22700;-79
2022/09/09 04:25:14;;;;;;;4.10;2.80;;;;;;;15.83;99.69;96489.09;107955;1271;23808;-79
2022/09/09 04:27:47;;;;;;;3.70;3.40;;;;;;;15.83;99.73;96490.78;107982;1271;25357;-79
2022/09/09 04:30:20;;;;;;;3.00;2.60;;;;;;;15.87;99.89;96490.19;107918;1271;26096;-79
2022/09/09 04:32:52;;;;;;;2.80;2.60;;;;;;;15.89;99.91;96488.91;107930;1271;24866;-79
2022/09/09 04:35:23;;;;;;;2.80;2.60;;;;;;;15.92;99.85;96484.48;107917;1271;22610;-79
2022/09/09 04:37:54;;;;;;;3.00;2.50;;;;;;;15.91;99.75;96479.31;107966;1271;25244;-78
2022/09/09 04:40:25;;;;;;;3.70;2.50;;;;;;;15.96;99.80;96480.98;107935;1271;26525;-79
2022/09/09 04:42:58;;;;;;;3.90;3.00;;;;;;;15.99;99.70;96480.71;107948;1271;23170;-79
2022/09/09 04:45:30;;;;;;;2.90;2.70;;;;;;;15.99;99.66;96479.89;107984;1271;25590;-79
2022/09/09 04:48:03;;;;;;;3.10;2.80;;;;;;;16.01;99.70;96478.13;107946;1271;22579;-79
2022/09/09 04:50:34;;;;;;;3.60;3.20;;;;;;;16.02;99.91;96479.70;107917;1271;27014;-79
2022/09/09 04:53:06;;;;;;;3.10;2.80;;;;;;;16.01;100.00;96480.84;107963;1271;22567;-79
2022/09/09 04:55:38;;;;;;;3.70;2.90;;;;;;;15.97;100.00;96479.52;107949;1271;22645;-79
2022/09/09 04:58:10;;;;;;;3.40;3.00;;;;;;;15.92;100.00;96488.36;107936;1271;22611;-79
2022/09/09 05:00:42;;;;;;;3.30;2.90;;;;;;;15.89;100.00;96492.56;107846;1271;25299;-79
2022/09/09 05:03:14;;;;;;;3.40;3.10;;;;;;;15.88;100.00;96493.20;107986;1271;22685;-79
2022/09/09 05:05:46;;;;;;;3.60;3.30;;;;;;;15.86;100.00;96496.13;107928;1271;22517;-79
2022/09/09 05:08:17;;;;;;;3.80;3.50;;;;;;;15.85;100.00;96498.14;107900;1271;22533;-79
2022/09/09 05:10:49;;;;;;;3.70;3.20;;;;;;;15.85;100.00;96499.89;107940;1271;22544;-79
2022/09/09 05:13:21;;;;;;;3.50;3.10;;;;;;;15.88;100.00;96494.36;107928;1271;22582;-79
2022/09/09 05:15:56;;;;;;;4.20;3.80;;;;;;;15.92;100.00;96490.20;107977;1271;22628;-79
2022/09/09 05:18:27;;;;;;;3.60;3.30;;;;;;;15.97;100.00;96485.02;107863;1271;25906;-78
2022/09/09 05:21:03;;;;;;;3.90;3.30;;;;;;;16.06;100.00;96490.50;107961;1270;22519;-79
2022/09/09 05:23:35;;;;;;;3.20;3.00;;;;;;;16.18;100.00;96489.04;107941;1271;22597;-79
2022/09/09 05:26:07;;;;;;;3.50;3.20;;;;;;;16.35;100.00;96487.53;107945;1271;22527;-79
2022/09/09 05:28:39;;;;;;;3.60;3.20;;;;;;;16.64;100.00;96488.29;107842;1271;26597;-79
2022/09/09 05:31:12;;;;;;;4.10;2.60;;;;;;;16.93;99.17;96492.17;107875;1271;25243;-79
2022/09/09 05:33:45;;;;;;;2.90;2.70;;;;;;;16.98;98.03;96491.36;107859;1271;23850;-79
2022/09/09 05:36:18;;;;;;;2.80;2.60;;;;;;;17.04;97.39;96493.71;107872;1271;22515;-79
2022/09/09 05:38:53;;;;;;;2.80;2.60;;;;;;;17.15;97.11;96493.08;107815;1271;34427;-79
2022/09/09 05:41:24;;;;;;;3.50;3.00;;;;;;;17.56;97.88;96499.22;107861;1271;22738;-79
2022/09/09 05:43:56;;;;;;;3.80;2.90;;;;;;;18.21;97.18;96501.80;107876;1271;22541;-79
2022/09/09 05:46:27;;;;;;;3.10;2.90;;;;;;;18.34;94.65;96497.12;107874;1271;24441;-79
2022/09/09 05:48:58;;;;;;;4.20;2.30;;;;;;;18.34;93.93;96498.45;107790;1270;24568;-79
2022/09/09 05:51:31;;;;;;;3.20;1.80;;;;;;;18.68;94.06;96499.20;107877;1271;22524;-79
2022/09/09 05:54:02;;;;;;;3.70;1.90;;;;;;;19.42;92.24;96501.77;107894;1270;24268;-79
2022/09/09 05:56:34;;;;;;;10.20;2.50;;;;;;;19.93;89.52;96504.20;107849;1271;25251;-79
2022/09/09 05:59:06;;;;;;;2.80;2.00;;;;;;;21.03;87.51;96495.90;107804;1271;26243;-79
2022/09/09 06:01:40;;;;;;;2.50;1.50;;;;;;;22.27;82.76;96493.35;107852;1271;22638;-79
2022/09/09 06:04:14;;;;;;;0.90;0.90;;;;;;;23.32;78.27;96496.31;107889;1270;24272;-80
2022/09/09 06:06:45;;;;;;;1.10;0.90;;;;;;;23.51;74.20;96492.89;107839;1271;22524;-79
2022/09/09 06:09:16;;;;;;;2.00;1.10;;;;;;;23.47;73.00;96502.27;107702;1271;34068;-79
2022/09/09 06:11:47;;;;;;;2.40;1.30;;;;;;;24.05;70.61;96503.23;107797;1271;22544;-79
2022/09/09 06:14:18;;;;;;;1.30;1.20;;;;;;;24.05;66.94;96503.84;107862;1271;22551;-80
2022/09/09 06:16:50;;;;;;;0.90;0.90;;;;;;;23.67;66.83;96505.11;107885;1271;22521;-79
2022/09/09 06:19:21;;;;;;;1.20;0.80;;;;;;;23.64;66.12;96507.47;107740;1271;25375;-79
2022/09/09 06:21:52;;;;;;;1.30;1.20;;;;;;;23.83;65.44;96513.52;107858;1271;25362;-80
2022/09/09 06:24:24;;;;;;;3.10;1.20;;;;;;;23.89;63.42;96515.70;107843;1271;22554;-79
2022/09/09 06:26:55;;;;;;;1.20;1.00;;;;;;;23.85;63.35;96515.20;107799;1271;22553;-80
2022/09/09 06:29:26;;;;;;;1.40;1.10;;;;;;;23.47;62.59;96513.85;107807;1271;31677;-80
2022/09/09 06:31:58;;;;;;;1.70;1.60;;;;;;;23.34;63.69;96518.59;107907;1271;22543;-80
2022/09/09 06:34:30;;;;;;;1.80;1.50;;;;;;;23.53;64.48;96516.88;107832;1271;22553;-80
2022/09/09 06:37:01;;;;;;;1.70;1.00;;;;;;;23.23;62.28;96513.40;107926;1271;22533;-80
2022/09/09 06:39:32;;;;;;;1.60;1.20;;;;;;;22.58;63.10;96518.12;107864;1271;24905;-79
2022/09/09 06:42:04;;;;;;;1.10;1.00;;;;;;;22.40;64.05;96515.16;107937;1271;22607;-80
2022/09/09 06:44:36;;;;;;;1.30;1.00;;;;;;;23.18;64.95;96511.96;107920;1269;22557;-80
2022/09/09 06:47:07;;;;;;;3.60;1.20;;;;;;;24.86;62.09;96514.14;107921;1271;22549;-80
2022/09/09 06:49:38;;;;;;;1.30;0.90;;;;;;;25.04;58.96;96519.88;107853;1271;30663;-79
2022/09/09 06:52:10;;;;;;;1.10;1.00;;;;;;;25.60;57.89;96513.36;107944;1271;22541;-80
2022/09/09 06:54:41;;;;;;;2.50;0.90;;;;;;;24.24;56.84;96514.91;107900;1271;22536;-79
2022/09/09 06:57:12;;;;;;;1.40;1.10;;;;;;;22.67;58.12;96515.96;107907;1271;26433;-79
2022/09/09 06:59:45;;;;;;;1.50;1.10;;;;;;;22.81;60.21;96517.38;107848;1270;30311;-79
2022/09/09 07:02:16;;;;;;;1.50;1.40;;;;;;;23.44;60.03;96520.15;107898;1271;22519;-79
2022/09/09 07:04:51;;;;;;;0.70;0.70;;;;;;;24.52;59.33;96520.20;107943;1271;22639;-79
2022/09/09 07:07:24;;;;;;;0.90;0.60;;;;;;;24.16;57.45;96517.92;107925;1271;22515;-79
2022/09/09 07:09:56;;;;;;;1.70;1.10;;;;;;;23.38;57.62;96519.04;107869;1271;24781;-79
2022/09/09 07:12:28;;;;;;;0.60;0.60;;;;;;;23.42;60.73;96516.77;106502;1271;1858248;-79
2022/09/09 07:15:00;;;;;;;4.80;1.10;;;;;;;25.14;61.87;96515.19;107906;1271;22608;-79
2022/09/09 07:17:31;;;;;;;0.80;0.80;;;;;;;27.08;57.25;96516.14;107955;1269;22532;-79
2022/09/09 07:20:03;;;;;;;1.30;0.80;;;;;;;26.61;54.68;96518.28;107810;1271;33440;-79
2022/09/09 07:22:36;;;;;;;1.10;0.80;;;;;;;26.03;55.52;96524.35;107847;1270;24483;-79
2022/09/09 07:25:09;;;;;;;1.70;0.80;;;;;;;25.91;55.76;96514.89;107899;1270;22541;-79
2022/09/09 07:27:40;;;;;;;2.10;1.20;;;;;;;25.40;55.37;96519.42;107888;1270;23373;-79
2022/09/09 07:30:14;;;;;;;0.80;0.80;;;;;;;25.29;55.15;96523.61;107825;1270;26421;-79
2022/09/09 07:32:46;;;;;;;1.30;0.80;;;;;;;26.01;55.90;96522.31;107912;1270;22622;-79
2022/09/09 07:35:17;;;;;;;1.20;1.10;;;;;;;27.36;54.86;96522.20;107883;1270;22520;-79
2022/09/09 07:37:48;;;;;;;3.30;1.10;;;;;;;28.03;51.50;96522.77;107891;1270;22704;-79
2022/09/09 07:40:21;;;;;;;1.20;1.00;;;;;;;27.85;49.32;96518.58;107837;1270;30710;-79
2022/09/09 07:42:53;;;;;;;1.60;1.10;;;;;;;26.45;50.21;96529.42;107868;1271;22525;-79
2022/09/09 07:45:24;;;;;;;2.10;1.10;;;;;;;26.24;51.60;96530.19;107846;1270;22779;-79
2022/09/09 07:47:56;;;;;;;1.70;0.80;;;;;;;26.46;52.63;96531.77;107885;1271;22598;-79
2022/09/09 07:50:29;;;;;;;2.00;1.10;;;;;;;26.97;52.01;96535.79;107830;1270;25177;-79
2022/09/09 07:53:02;;;;;;;1.20;0.90;;;;;;;27.50;52.18;96538.78;107912;1270;22707;-79
2022/09/09 07:55:33;;;;;;;2.80;1.30;;;;;;;27.20;50.06;96539.39;107890;1271;22522;-78
2022/09/09 07:58:04;;;;;;;2.20;1.40;;;;;;;25.94;50.24;96540.27;107908;1271;22551;-79
2022/09/09 08:00:36;;;;;;;1.50;1.00;;;;;;;25.58;52.06;96539.73;107850;1271;22964;-79
2022/09/09 08:03:07;;;;;;;1.20;1.10;;;;;;;25.31;50.87;96537.58;107916;1271;25250;-79
2022/09/09 08:05:39;;;;;;;2.20;1.30;;;;;;;25.10;51.83;96543.38;107916;1271;22528;-79
2022/09/09 08:08:10;;;;;;;1.70;1.00;;;;;;;24.22;51.53;96544.91;107947;1271;22540;-79
2022/09/09 08:10:41;;;;;;;3.10;1.50;;;;;;;22.95;53.61;96550.29;107770;1270;31197;-79
2022/09/09 08:13:12;;;;;;;2.40;1.10;;;;;;;22.24;56.23;96555.52;107906;1270;22563;-79
2022/09/09 08:15:44;;;;;;;1.20;1.10;;;;;;;22.28;57.44;96560.08;107889;1270;25412;-79
2022/09/09 08:18:15;;;;;;;2.10;1.60;;;;;;;22.35;57.74;96561.74;107889;1270;22519;-79
2022/09/09 08:20:46;;;;;;;2.00;1.30;;;;;;;22.02;57.89;96562.74;107855;1270;22526;-79
2022/09/09 08:23:18;;;;;;;1.40;1.30;;;;;;;21.81;58.52;96565.11;107872;1270;22556;-79
2022/09/09 08:25:49;;;;;;;1.30;1.20;;;;;;;21.56;59.01;96563.71;107884;1270;22542;-79
2022/09/09 08:28:22;;;;;;;1.80;1.40;;;;;;;21.40;59.77;96555.71;107853;1270;44810;-78
2022/09/09 08:30:54;;;;;;;2.20;1.60;;;;;;;21.37;60.30;96554.55;107865;1270;22534;-79
2022/09/09 08:33:25;;;;;;;2.10;1.50;;;;;;;21.54;61.00;96550.94;107882;1270;24328;-79
2022/09/09 08:35:56;;;;;;;2.60;1.50;;;;;;;22.41;61.44;96551.66;107895;1270;22792;-79
2022/09/09 08:38:28;;;;;;;1.30;1.20;;;;;;;23.64;59.89;96558.18;107836;1270;28023;-79
2022/09/09 08:41:13;;;;;;;1.50;1.40;;;;;;;23.94;58.26;96563.98;107844;1270;22607;-79
2022/09/09 08:43:47;;;;;;;1.90;1.20;;;;;;;23.38;57.50;96564.80;107914;1270;22578;-79
2022/09/09 08:46:26;;;;;;;1.60;1.30;;;;;;;23.19;57.93;96569.13;107862;1270;22531;-79
2022/09/09 08:49:04;;;;;;;2.40;1.60;;;;;;;22.64;58.12;96569.28;107846;1270;23819;-79
2022/09/09 08:51:35;;;;;;;1.10;1.00;;;;;;;23.02;58.88;96574.86;107891;1270;23008;-79
2022/09/09 08:54:20;;;;;;;1.40;1.10;;;;;;;23.19;57.66;96572.75;107873;1270;22747;-79
2022/09/09 08:56:51;;;;;;;2.60;0.90;;;;;;;24.60;58.10;96567.90;107904;1270;22756;-79
2022/09/09 08:59:23;;;;;;;1.40;0.90;;;;;;;26.53;57.85;96560.02;107785;1270;26484;-79
2022/09/09 09:02:16;;;;;;;3.80;1.10;;;;;;;27.69;53.13;96557.78;107898;1270;25511;-79
2022/09/09 09:05:05;;;;;;;1.40;0.90;;;;;;;28.22;53.00;96561.73;107914;1270;23183;-79
2022/09/09 09:07:49;;;;;;;1.60;0.80;;;;;;;28.79;51.18;96567.05;107905;1270;22647;-79
2022/09/09 09:10:32;;;;;;;1.20;0.90;;;;;;;28.31;48.64;96562.73;107794;1270;36914;-79
2022/09/09 09:13:04;;;;;;;1.30;0.80;;;;;;;26.78;47.88;96565.41;107862;1270;22544;-79
2022/09/09 09:15:39;;;;;;;2.30;1.10;;;;;;;25.84;49.72;96569.09;107833;1270;22655;-79
2022/09/09 09:18:15;;;;;;;1.60;1.10;;;;;;;25.52;50.20;96569.85;107892;1270;22592;-79
2022/09/09 09:20:55;;;;;;;1.70;1.20;;;;;;;24.99;50.64;96571.99;107951;1270;22522;-80
2022/09/09 09:23:35;;;;;;;2.50;1.10;;;;;;;24.51;51.80;96573.33;107924;1270;24231;-80
2022/09/09 09:26:10;;;;;;;1.40;0.90;;;;;;;24.29;52.22;96569.19;107878;1270;22558;-79
2022/09/09 09:28:42;;;;;;;2.70;1.00;;;;;;;23.95;52.59;96570.10;107813;1270;30857;-79
2022/09/09 09:31:14;;;;;;;1.60;1.00;;;;;;;23.19;52.88;96568.66;107925;1270;22521;-79
2022/09/09 09:33:50;;;;;;;1.10;1.00;;;;;;;22.34;54.97;96578.16;107938;1268;25253;-80
2022/09/09 09:36:24;;;;;;;1.50;1.20;;;;;;;22.19;56.37;96576.69;107914;1271;22540;-79
2022/09/09 09:38:59;;;;;;;4.00;1.00;;;;;;;22.18;56.69;96576.21;107878;1270;28385;-79
2022/09/09 09:41:39;;;;;;;2.40;1.00;;;;;;;22.18;56.63;96578.08;107937;1270;24375;-80
2022/09/09 09:44:26;;;;;;;1.10;0.90;;;;;;;22.25;56.78;96576.23;107953;1271;25241;-79
2022/09/09 09:47:09;;;;;;;1.90;0.90;;;;;;;22.50;57.27;96570.55;107901;1269;22519;-79
2022/09/09 09:49:41;;;;;;;2.70;1.00;;;;;;;22.72;56.44;96572.05;107931;1271;29664;-79
2022/09/09 09:52:22;;;;;;;0.80;0.80;;;;;;;22.37;55.14;96569.73;107935;1271;23327;-79
2022/09/09 09:54:55;;;;;;;1.40;1.00;;;;;;;22.23;55.57;96564.98;107947;1271;22563;-79
2022/09/09 09:57:30;;;;;;;1.80;1.00;;;;;;;22.19;55.84;96565.59;107969;1271;22527;-79
2022/09/09 10:00:17;;;;;;;1.20;0.90;;;;;;;22.36;56.62;96561.77;107941;1269;23381;-79
2022/09/09 10:02:51;;;;;;;2.50;1.70;;;;;;;22.83;56.96;96557.27;107927;1270;22543;-79
2022/09/09 10:05:25;;;;;;;1.60;1.10;;;;;;;22.66;56.46;96556.16;107947;1271;25521;-79
2022/09/09 10:08:14;;;;;;;1.30;1.00;;;;;;;22.38;57.58;96558.05;107927;1270;25238;-79
2022/09/09 10:11:04;;;;;;;1.50;1.20;;;;;;;22.40;56.87;96558.39;107957;1270;22554;-79
2022/09/09 10:13:45;;;;;;;1.10;0.90;;;;;;;22.69;57.87;96551.75;107947;1270;22562;-79
2022/09/09 10:16:33;;;;;;;2.80;1.00;;;;;;;22.99;57.51;96550.25;107958;1271;22528;-79
2022/09/09 10:19:08;;;;;;;2.20;1.00;;;;;;;23.17;56.40;96556.73;107909;1270;27058;-79
2022/09/09 10:22:03;;;;;;;1.00;0.90;;;;;;;23.09;56.82;96555.98;107968;1271;23484;-80
2022/09/09 10:25:02;;;;;;;1.00;0.80;;;;;;;23.22;57.26;96558.83;107970;1270;22577;-79
2022/09/09 10:27:46;;;;;;;2.30;1.20;;;;;;;23.33;56.32;96556.61;107974;1271;23910;-80
2022/09/09 10:30:23;;;;;;;1.20;0.90;;;;;;;22.88;54.49;96557.29;107872;1270;30912;-80
2022/09/09 10:33:05;;;;;;;2.80;1.10;;;;;;;22.43;55.65;96551.26;107980;1271;22551;-80
2022/09/09 10:35:41;;;;;;;1.90;1.10;;;;;;;22.47;56.08;96551.03;107975;1270;24250;-80
2022/09/09 10:38:29;;;;;;;1.90;1.10;;;;;;;22.59;56.48;96550.64;107916;1270;25485;-80
2022/09/09 10:41:16;;;;;;;1.30;1.20;;;;;;;23.03;57.90;96553.77;107985;1270;22542;-80
2022/09/09 10:44:04;;;;;;;1.30;1.00;;;;;;;23.22;56.13;96554.56;107968;1270;22522;-80
2022/09/09 10:46:44;;;;;;;1.90;1.30;;;;;;;22.82;55.74;96556.56;107968;1270;23164;-80
2022/09/09 10:49:25;;;;;;;2.50;1.20;;;;;;;22.96;56.77;96559.30;107915;1269;29800;-79
2022/09/09 10:52:06;;;;;;;2.70;1.50;;;;;;;23.21;56.21;96558.03;107973;1270;22530;-80
2022/09/09 10:54:56;;;;;;;2.10;1.00;;;;;;;23.16;56.47;96554.55;107953;1270;22556;-80
2022/09/09 10:57:36;;;;;;;2.10;1.10;;;;;;;23.29;55.81;96556.17;108008;1270;25203;-80
2022/09/09 11:00:17;;;;;;;2.40;1.00;;;;;;;23.07;55.34;96556.25;107904;1270;30482;-80
2022/09/09 11:02:53;;;;;;;2.10;1.10;;;;;;;22.60;54.39;96556.30;107966;1269;25467;-79
2022/09/09 11:05:30;;;;;;;1.50;1.00;;;;;;;22.08;54.96;96556.54;107931;1270;22554;-80
2022/09/09 11:08:06;;;;;;;1.30;1.20;;;;;;;21.98;56.16;96554.00;107927;1270;24485;-80
2022/09/09 11:10:44;;;;;;;1.40;0.90;;;;;;;22.13;56.58;96552.52;107896;1270;35430;-80
2022/09/09 11:13:24;;;;;;;0.70;0.70;;;;;;;22.28;56.84;96555.90;107996;1271;22632;-80
2022/09/09 11:16:04;;;;;;;1.60;0.90;;;;;;;22.69;56.85;96557.09;107972;1271;22522;-80
2022/09/09 11:18:42;;;;;;;2.20;0.80;;;;;;;23.22;56.18;96561.53;107871;1269;38368;-79
2022/09/09 11:21:25;;;;;;;1.80;0.60;;;;;;;23.72;56.24;96556.63;107939;1270;24365;-80
2022/09/09 11:24:04;;;;;;;0.60;0.60;;;;;;;23.98;54.72;96557.46;107996;1270;24182;-79
2022/09/09 11:26:40;;;;;;;1.30;0.80;;;;;;;24.03;54.75;96558.75;107939;1270;22611;-80
2022/09/09 11:29:31;;;;;;;0.60;0.50;;;;;;;23.99;54.70;96559.71;107925;1270;32014;-79
2022/09/09 11:32:22;;;;;;;0.90;0.60;;;;;;;23.95;54.86;96567.48;107962;1270;22537;-80
2022/09/09 11:35:05;;;;;;;1.30;0.70;;;;;;;23.92;54.87;96566.88;107975;1270;22627;-80
2022/09/09 11:38:05;;;;;;;0.70;0.50;;;;;;;23.92;54.89;96567.42;108001;1270;22571;-79
2022/09/09 11:40:35;;;;;;;1.70;0.90;;;;;;;23.87;54.71;96563.95;107850;1270;26702;-79
2022/09/09 11:43:13;;;;;;;1.40;0.70;;;;;;;23.71;54.41;96569.90;107925;1270;22708;-80
2022/09/09 11:45:52;;;;;;;1.40;0.70;;;;;;;23.71;55.04;96573.48;107971;1270;22554;-80
2022/09/09 11:48:33;;;;;;;1.10;0.90;;;;;;;23.75;54.48;96571.44;107859;1270;25372;-79
2022/09/09 11:51:08;;;;;;;2.00;0.90;;;;;;;23.68;55.26;96571.79;107860;1270;23716;-79
2022/09/09 11:53:51;;;;;;;1.20;1.10;;;;;;;23.92;55.16;96569.36;107992;1270;22519;-79
2022/09/09 11:56:32;;;;;;;1.70;0.90;;;;;;;24.25;55.79;96565.79;107959;1270;22552;-79
2022/09/09 11:59:07;;;;;;;1.10;0.80;;;;;;;24.62;54.92;96567.80;107905;1270;25973;-80
2022/09/09 12:01:42;;;;;;;0.80;0.80;;;;;;;24.81;54.48;96568.71;107947;1270;25253;-80
2022/09/09 12:04:33;;;;;;;0.90;0.80;;;;;;;24.96;53.31;96563.75;107933;1270;25317;-80